Who's Online

We have 3 guests online

Aviation WX

[source: ADDS]
METAR
KIAD 211952Z 01004KT 10SM CLR 04/M04 A3028 RMK AO2 SLP256 T00441044 =
TAF
KIAD 211739Z 2118/2224 VRB03KT P6SM BKN050 FM211900 VRB03KT P6SM SCT200 FM220900 VRB03KT P6SM BKN050 FM221400 VRB03KT 5SM -FZRAPL SCT008 OVC025 FM221800 06004KT 5SM -RA SCT008 BKN015 OVC025 =
SR / SS: 02:04 / 11:36 UTC (Washington-Dulles 2014-12-21)

JoomlaWatch Agent

Home Products and Services

This section describes Multilink Systems products and services

 

 

Under construction Please Standby